sensor_id;sensor_type;location;lat;lon;timestamp;P1;durP1;ratioP1;P2;durP2;ratioP2
48703;SDS011;34502;51.296;16.918;2022-09-29T00:02:21;26.38;;;18.15;;
48703;SDS011;34502;51.296;16.918;2022-09-29T00:04:47;29.30;;;18.40;;
48703;SDS011;34502;51.296;16.918;2022-09-29T00:07:13;24.48;;;17.42;;
48703;SDS011;34502;51.296;16.918;2022-09-29T00:09:39;31.55;;;21.08;;
48703;SDS011;34502;51.296;16.918;2022-09-29T00:12:05;27.60;;;18.08;;
48703;SDS011;34502;51.296;16.918;2022-09-29T00:14:31;22.05;;;15.52;;
48703;SDS011;34502;51.296;16.918;2022-09-29T00:16:57;22.35;;;12.98;;
48703;SDS011;34502;51.296;16.918;2022-09-29T00:19:23;13.32;;;10.30;;
48703;SDS011;34502;51.296;16.918;2022-09-29T00:21:51;11.13;;;9.75;;
48703;SDS011;34502;51.296;16.918;2022-09-29T00:24:17;13.77;;;9.13;;
48703;SDS011;34502;51.296;16.918;2022-09-29T00:26:43;9.38;;;7.80;;
48703;SDS011;34502;51.296;16.918;2022-09-29T00:29:10;8.45;;;7.50;;
48703;SDS011;34502;51.296;16.918;2022-09-29T00:31:36;7.63;;;6.82;;
48703;SDS011;34502;51.296;16.918;2022-09-29T00:34:02;11.43;;;7.47;;
48703;SDS011;34502;51.296;16.918;2022-09-29T00:36:29;9.20;;;8.02;;
48703;SDS011;34502;51.296;16.918;2022-09-29T00:38:55;9.05;;;7.38;;
48703;SDS011;34502;51.296;16.918;2022-09-29T00:41:25;9.07;;;7.50;;
48703;SDS011;34502;51.296;16.918;2022-09-29T00:51:39;10.98;;;8.05;;
48703;SDS011;34502;51.296;16.918;2022-09-29T00:54:10;8.18;;;7.22;;
48703;SDS011;34502;51.296;16.918;2022-09-29T00:56:36;9.18;;;7.55;;
48703;SDS011;34502;51.296;16.918;2022-09-29T00:59:05;9.10;;;7.80;;
48703;SDS011;34502;51.296;16.918;2022-09-29T01:01:33;14.18;;;9.30;;
48703;SDS011;34502;51.296;16.918;2022-09-29T01:04:09;12.85;;;10.70;;
48703;SDS011;34502;51.296;16.918;2022-09-29T01:06:39;17.58;;;12.23;;
48703;SDS011;34502;51.296;16.918;2022-09-29T01:09:12;20.50;;;12.80;;
48703;SDS011;34502;51.296;16.918;2022-09-29T01:11:43;17.50;;;13.27;;
48703;SDS011;34502;51.296;16.918;2022-09-29T01:14:09;17.15;;;12.00;;
48703;SDS011;34502;51.296;16.918;2022-09-29T01:16:36;18.50;;;13.15;;
48703;SDS011;34502;51.296;16.918;2022-09-29T01:19:05;18.30;;;13.65;;
48703;SDS011;34502;51.296;16.918;2022-09-29T01:27:17;16.80;;;12.45;;
48703;SDS011;34502;51.296;16.918;2022-09-29T01:32:38;17.25;;;12.70;;
48703;SDS011;34502;51.296;16.918;2022-09-29T01:35:19;19.48;;;12.30;;
48703;SDS011;34502;51.296;16.918;2022-09-29T01:38:01;15.50;;;12.05;;
48703;SDS011;34502;51.296;16.918;2022-09-29T01:43:31;15.55;;;12.30;;
48703;SDS011;34502;51.296;16.918;2022-09-29T01:46:27;15.75;;;10.68;;
48703;SDS011;34502;51.296;16.918;2022-09-29T01:49:01;18.10;;;11.38;;
48703;SDS011;34502;51.296;16.918;2022-09-29T01:51:37;12.30;;;10.55;;
48703;SDS011;34502;51.296;16.918;2022-09-29T01:54:11;16.77;;;10.98;;
48703;SDS011;34502;51.296;16.918;2022-09-29T01:56:51;17.00;;;10.57;;
48703;SDS011;34502;51.296;16.918;2022-09-29T01:59:23;12.38;;;10.10;;
48703;SDS011;34502;51.296;16.918;2022-09-29T02:01:56;12.70;;;10.27;;
48703;SDS011;34502;51.296;16.918;2022-09-29T02:04:31;11.88;;;10.07;;
48703;SDS011;34502;51.296;16.918;2022-09-29T02:07:07;11.75;;;9.63;;
48703;SDS011;34502;51.296;16.918;2022-09-29T02:09:47;13.32;;;9.95;;
48703;SDS011;34502;51.296;16.918;2022-09-29T02:12:16;11.48;;;9.85;;
48703;SDS011;34502;51.296;16.918;2022-09-29T02:14:47;13.45;;;10.20;;
48703;SDS011;34502;51.296;16.918;2022-09-29T02:17:18;10.48;;;9.20;;
48703;SDS011;34502;51.296;16.918;2022-09-29T02:19:46;14.93;;;8.68;;
48703;SDS011;34502;51.296;16.918;2022-09-29T02:22:16;11.10;;;8.98;;
48703;SDS011;34502;51.296;16.918;2022-09-29T02:24:42;11.88;;;9.43;;
48703;SDS011;34502;51.296;16.918;2022-09-29T02:27:08;11.90;;;10.05;;
48703;SDS011;34502;51.296;16.918;2022-09-29T02:29:35;11.55;;;8.73;;
48703;SDS011;34502;51.296;16.918;2022-09-29T02:32:02;11.48;;;8.50;;
48703;SDS011;34502;51.296;16.918;2022-09-29T02:34:30;10.15;;;8.35;;
48703;SDS011;34502;51.296;16.918;2022-09-29T02:37:03;12.20;;;8.48;;
48703;SDS011;34502;51.296;16.918;2022-09-29T02:42:27;8.85;;;7.95;;
48703;SDS011;34502;51.296;16.918;2022-09-29T02:59:09;14.70;;;11.18;;
48703;SDS011;34502;51.296;16.918;2022-09-29T03:01:52;17.08;;;11.50;;
48703;SDS011;34502;51.296;16.918;2022-09-29T03:04:21;17.90;;;12.48;;
48703;SDS011;34502;51.296;16.918;2022-09-29T03:06:48;19.52;;;12.13;;
48703;SDS011;34502;51.296;16.918;2022-09-29T03:09:15;17.85;;;11.57;;
48703;SDS011;34502;51.296;16.918;2022-09-29T03:11:41;24.88;;;13.27;;
48703;SDS011;34502;51.296;16.918;2022-09-29T03:14:07;15.60;;;11.60;;
48703;SDS011;34502;51.296;16.918;2022-09-29T03:16:33;16.98;;;12.00;;
48703;SDS011;34502;51.296;16.918;2022-09-29T03:19:00;20.05;;;12.77;;
48703;SDS011;34502;51.296;16.918;2022-09-29T03:21:28;23.13;;;13.98;;
48703;SDS011;34502;51.296;16.918;2022-09-29T03:23:54;18.60;;;12.27;;
48703;SDS011;34502;51.296;16.918;2022-09-29T03:26:20;14.98;;;10.80;;
48703;SDS011;34502;51.296;16.918;2022-09-29T03:28:47;17.70;;;11.73;;
48703;SDS011;34502;51.296;16.918;2022-09-29T03:31:14;19.23;;;12.15;;
48703;SDS011;34502;51.296;16.918;2022-09-29T03:33:40;13.43;;;9.55;;
48703;SDS011;34502;51.296;16.918;2022-09-29T03:36:06;15.27;;;10.43;;
48703;SDS011;34502;51.296;16.918;2022-09-29T03:38:38;14.48;;;10.27;;
48703;SDS011;34502;51.296;16.918;2022-09-29T03:41:04;19.33;;;13.63;;
48703;SDS011;34502;51.296;16.918;2022-09-29T03:43:31;18.40;;;12.38;;
48703;SDS011;34502;51.296;16.918;2022-09-29T03:45:57;16.73;;;12.20;;
48703;SDS011;34502;51.296;16.918;2022-09-29T03:48:23;16.13;;;11.52;;
48703;SDS011;34502;51.296;16.918;2022-09-29T03:50:54;21.58;;;13.73;;
48703;SDS011;34502;51.296;16.918;2022-09-29T03:53:20;16.70;;;12.32;;
48703;SDS011;34502;51.296;16.918;2022-09-29T03:55:46;16.13;;;12.02;;
48703;SDS011;34502;51.296;16.918;2022-09-29T03:58:13;16.70;;;11.27;;
48703;SDS011;34502;51.296;16.918;2022-09-29T04:00:39;15.10;;;10.88;;
48703;SDS011;34502;51.296;16.918;2022-09-29T04:03:05;13.35;;;10.02;;
48703;SDS011;34502;51.296;16.918;2022-09-29T04:05:32;15.68;;;11.00;;
48703;SDS011;34502;51.296;16.918;2022-09-29T04:08:02;14.35;;;10.48;;
48703;SDS011;34502;51.296;16.918;2022-09-29T04:10:29;16.63;;;10.07;;
48703;SDS011;34502;51.296;16.918;2022-09-29T04:12:55;20.42;;;13.13;;
48703;SDS011;34502;51.296;16.918;2022-09-29T04:15:21;11.68;;;9.23;;
48703;SDS011;34502;51.296;16.918;2022-09-29T04:17:47;12.65;;;10.40;;
48703;SDS011;34502;51.296;16.918;2022-09-29T04:20:13;17.58;;;11.50;;
48703;SDS011;34502;51.296;16.918;2022-09-29T04:22:39;13.05;;;10.38;;
48703;SDS011;34502;51.296;16.918;2022-09-29T04:25:06;18.33;;;11.63;;
48703;SDS011;34502;51.296;16.918;2022-09-29T04:27:32;16.63;;;11.77;;
48703;SDS011;34502;51.296;16.918;2022-09-29T04:29:58;17.50;;;12.02;;
48703;SDS011;34502;51.296;16.918;2022-09-29T04:32:24;17.65;;;13.68;;
48703;SDS011;34502;51.296;16.918;2022-09-29T04:34:50;20.80;;;12.85;;
48703;SDS011;34502;51.296;16.918;2022-09-29T04:37:16;19.85;;;12.73;;
48703;SDS011;34502;51.296;16.918;2022-09-29T04:39:42;19.67;;;13.45;;
48703;SDS011;34502;51.296;16.918;2022-09-29T04:42:08;18.73;;;13.13;;
48703;SDS011;34502;51.296;16.918;2022-09-29T04:44:35;19.85;;;12.57;;
48703;SDS011;34502;51.296;16.918;2022-09-29T04:47:01;15.02;;;11.27;;
48703;SDS011;34502;51.296;16.918;2022-09-29T04:49:27;16.80;;;12.98;;
48703;SDS011;34502;51.296;16.918;2022-09-29T04:51:53;17.83;;;12.23;;
48703;SDS011;34502;51.296;16.918;2022-09-29T04:54:19;17.27;;;12.27;;
48703;SDS011;34502;51.296;16.918;2022-09-29T04:56:48;15.32;;;11.43;;
48703;SDS011;34502;51.296;16.918;2022-09-29T04:59:15;16.67;;;11.68;;
48703;SDS011;34502;51.296;16.918;2022-09-29T05:01:42;16.65;;;12.38;;
48703;SDS011;34502;51.296;16.918;2022-09-29T05:04:08;14.80;;;10.85;;
48703;SDS011;34502;51.296;16.918;2022-09-29T05:06:34;16.77;;;11.52;;
48703;SDS011;34502;51.296;16.918;2022-09-29T05:09:03;17.75;;;11.52;;
48703;SDS011;34502;51.296;16.918;2022-09-29T05:11:30;17.15;;;12.35;;
48703;SDS011;34502;51.296;16.918;2022-09-29T05:13:56;22.25;;;15.50;;
48703;SDS011;34502;51.296;16.918;2022-09-29T05:16:22;28.80;;;16.85;;
48703;SDS011;34502;51.296;16.918;2022-09-29T05:18:49;34.45;;;18.65;;
48703;SDS011;34502;51.296;16.918;2022-09-29T05:21:15;32.60;;;17.63;;
48703;SDS011;34502;51.296;16.918;2022-09-29T05:23:41;25.13;;;16.38;;
48703;SDS011;34502;51.296;16.918;2022-09-29T05:26:08;23.58;;;15.68;;
48703;SDS011;34502;51.296;16.918;2022-09-29T05:28:36;23.13;;;15.30;;
48703;SDS011;34502;51.296;16.918;2022-09-29T05:31:04;21.30;;;14.68;;
48703;SDS011;34502;51.296;16.918;2022-09-29T05:33:31;24.40;;;16.15;;
48703;SDS011;34502;51.296;16.918;2022-09-29T05:35:58;24.58;;;15.70;;
48703;SDS011;34502;51.296;16.918;2022-09-29T05:38:24;22.40;;;15.65;;
48703;SDS011;34502;51.296;16.918;2022-09-29T05:40:50;24.23;;;16.95;;
48703;SDS011;34502;51.296;16.918;2022-09-29T05:43:17;25.00;;;17.60;;
48703;SDS011;34502;51.296;16.918;2022-09-29T05:45:43;26.48;;;19.25;;
48703;SDS011;34502;51.296;16.918;2022-09-29T05:48:10;26.33;;;17.90;;
48703;SDS011;34502;51.296;16.918;2022-09-29T05:50:36;28.38;;;17.05;;
48703;SDS011;34502;51.296;16.918;2022-09-29T05:53:09;23.15;;;15.88;;
48703;SDS011;34502;51.296;16.918;2022-09-29T05:55:35;22.45;;;15.10;;
48703;SDS011;34502;51.296;16.918;2022-09-29T05:58:02;20.02;;;15.50;;
48703;SDS011;34502;51.296;16.918;2022-09-29T06:00:29;23.38;;;14.50;;
48703;SDS011;34502;51.296;16.918;2022-09-29T06:02:57;18.50;;;14.15;;
48703;SDS011;34502;51.296;16.918;2022-09-29T06:05:24;15.80;;;11.63;;
48703;SDS011;34502;51.296;16.918;2022-09-29T06:07:50;18.52;;;13.68;;
48703;SDS011;34502;51.296;16.918;2022-09-29T06:10:17;15.10;;;11.63;;
48703;SDS011;34502;51.296;16.918;2022-09-29T06:12:43;19.77;;;11.85;;
48703;SDS011;34502;51.296;16.918;2022-09-29T06:15:09;17.85;;;11.35;;
48703;SDS011;34502;51.296;16.918;2022-09-29T06:17:36;13.80;;;10.77;;
48703;SDS011;34502;51.296;16.918;2022-09-29T06:20:02;14.25;;;11.18;;
48703;SDS011;34502;51.296;16.918;2022-09-29T06:22:29;17.95;;;10.38;;
48703;SDS011;34502;51.296;16.918;2022-09-29T06:24:55;16.40;;;11.30;;
48703;SDS011;34502;51.296;16.918;2022-09-29T06:27:21;15.32;;;9.82;;
48703;SDS011;34502;51.296;16.918;2022-09-29T06:29:48;14.93;;;10.25;;
48703;SDS011;34502;51.296;16.918;2022-09-29T06:32:14;11.98;;;8.82;;
48703;SDS011;34502;51.296;16.918;2022-09-29T06:34:40;13.27;;;9.07;;
48703;SDS011;34502;51.296;16.918;2022-09-29T06:37:25;14.95;;;9.80;;
48703;SDS011;34502;51.296;16.918;2022-09-29T06:40:01;11.63;;;8.98;;
48703;SDS011;34502;51.296;16.918;2022-09-29T06:42:28;13.75;;;9.27;;
48703;SDS011;34502;51.296;16.918;2022-09-29T06:44:54;15.38;;;10.20;;
48703;SDS011;34502;51.296;16.918;2022-09-29T06:47:21;13.60;;;10.02;;
48703;SDS011;34502;51.296;16.918;2022-09-29T06:49:47;13.23;;;8.98;;
48703;SDS011;34502;51.296;16.918;2022-09-29T06:52:13;13.23;;;8.77;;
48703;SDS011;34502;51.296;16.918;2022-09-29T06:54:40;12.10;;;7.97;;
48703;SDS011;34502;51.296;16.918;2022-09-29T06:57:06;12.30;;;8.85;;
48703;SDS011;34502;51.296;16.918;2022-09-29T06:59:32;15.32;;;9.40;;
48703;SDS011;34502;51.296;16.918;2022-09-29T07:01:58;15.82;;;9.40;;
48703;SDS011;34502;51.296;16.918;2022-09-29T07:04:25;11.32;;;8.68;;
48703;SDS011;34502;51.296;16.918;2022-09-29T07:06:51;13.60;;;8.60;;
48703;SDS011;34502;51.296;16.918;2022-09-29T07:09:17;11.98;;;8.52;;
48703;SDS011;34502;51.296;16.918;2022-09-29T07:11:45;11.15;;;8.50;;
48703;SDS011;34502;51.296;16.918;2022-09-29T07:14:17;9.93;;;8.57;;
48703;SDS011;34502;51.296;16.918;2022-09-29T07:16:44;10.30;;;7.65;;
48703;SDS011;34502;51.296;16.918;2022-09-29T07:19:13;9.40;;;6.35;;
48703;SDS011;34502;51.296;16.918;2022-09-29T07:21:40;13.00;;;7.53;;
48703;SDS011;34502;51.296;16.918;2022-09-29T07:24:06;9.52;;;7.68;;
48703;SDS011;34502;51.296;16.918;2022-09-29T07:26:32;9.73;;;7.63;;
48703;SDS011;34502;51.296;16.918;2022-09-29T07:28:59;11.35;;;8.07;;
48703;SDS011;34502;51.296;16.918;2022-09-29T07:31:25;8.88;;;7.22;;
48703;SDS011;34502;51.296;16.918;2022-09-29T07:33:51;16.98;;;9.15;;
48703;SDS011;34502;51.296;16.918;2022-09-29T07:36:18;15.45;;;9.77;;
48703;SDS011;34502;51.296;16.918;2022-09-29T07:38:45;12.65;;;10.35;;
48703;SDS011;34502;51.296;16.918;2022-09-29T07:41:12;14.75;;;10.65;;
48703;SDS011;34502;51.296;16.918;2022-09-29T07:43:38;19.98;;;11.82;;
48703;SDS011;34502;51.296;16.918;2022-09-29T07:46:05;26.65;;;12.30;;
48703;SDS011;34502;51.296;16.918;2022-09-29T07:48:32;15.73;;;9.20;;
48703;SDS011;34502;51.296;16.918;2022-09-29T07:50:59;14.07;;;8.70;;
48703;SDS011;34502;51.296;16.918;2022-09-29T07:53:29;10.15;;;7.40;;
48703;SDS011;34502;51.296;16.918;2022-09-29T07:56:00;8.70;;;7.80;;
48703;SDS011;34502;51.296;16.918;2022-09-29T07:58:30;11.40;;;8.30;;
48703;SDS011;34502;51.296;16.918;2022-09-29T08:00:57;11.90;;;7.40;;
48703;SDS011;34502;51.296;16.918;2022-09-29T08:03:24;9.95;;;7.07;;
48703;SDS011;34502;51.296;16.918;2022-09-29T08:05:51;9.48;;;7.53;;
48703;SDS011;34502;51.296;16.918;2022-09-29T08:08:17;10.50;;;8.55;;
48703;SDS011;34502;51.296;16.918;2022-09-29T08:10:44;12.63;;;8.45;;
48703;SDS011;34502;51.296;16.918;2022-09-29T08:13:10;11.90;;;7.97;;
48703;SDS011;34502;51.296;16.918;2022-09-29T08:15:36;13.82;;;8.23;;
48703;SDS011;34502;51.296;16.918;2022-09-29T08:18:02;11.45;;;6.97;;
48703;SDS011;34502;51.296;16.918;2022-09-29T08:20:28;7.95;;;6.68;;
48703;SDS011;34502;51.296;16.918;2022-09-29T08:22:55;7.95;;;5.63;;
48703;SDS011;34502;51.296;16.918;2022-09-29T08:25:22;5.93;;;5.30;;
48703;SDS011;34502;51.296;16.918;2022-09-29T08:27:50;5.00;;;4.30;;
48703;SDS011;34502;51.296;16.918;2022-09-29T08:30:16;4.97;;;4.32;;
48703;SDS011;34502;51.296;16.918;2022-09-29T08:32:43;5.55;;;4.72;;
48703;SDS011;34502;51.296;16.918;2022-09-29T08:35:14;10.40;;;4.83;;
48703;SDS011;34502;51.296;16.918;2022-09-29T08:37:40;6.55;;;4.35;;
48703;SDS011;34502;51.296;16.918;2022-09-29T08:40:06;4.95;;;3.92;;
48703;SDS011;34502;51.296;16.918;2022-09-29T08:45:20;4.53;;;3.92;;
48703;SDS011;34502;51.296;16.918;2022-09-29T08:47:51;3.90;;;3.50;;
48703;SDS011;34502;51.296;16.918;2022-09-29T08:52:50;3.65;;;3.25;;
48703;SDS011;34502;51.296;16.918;2022-09-29T08:55:25;4.25;;;3.22;;
48703;SDS011;34502;51.296;16.918;2022-09-29T08:58:07;3.90;;;3.40;;
48703;SDS011;34502;51.296;16.918;2022-09-29T09:00:42;4.53;;;3.95;;
48703;SDS011;34502;51.296;16.918;2022-09-29T09:03:41;5.45;;;4.07;;
48703;SDS011;34502;51.296;16.918;2022-09-29T09:15:19;4.00;;;2.70;;
48703;SDS011;34502;51.296;16.918;2022-09-29T09:20:35;2.08;;;1.88;;
48703;SDS011;34502;51.296;16.918;2022-09-29T09:25:48;2.33;;;1.60;;
48703;SDS011;34502;51.296;16.918;2022-09-29T09:28:21;1.83;;;1.73;;
48703;SDS011;34502;51.296;16.918;2022-09-29T09:34:06;1.38;;;1.27;;
48703;SDS011;34502;51.296;16.918;2022-09-29T09:39:00;1.95;;;1.20;;
48703;SDS011;34502;51.296;16.918;2022-09-29T09:41:30;1.02;;;0.95;;
48703;SDS011;34502;51.296;16.918;2022-09-29T09:44:11;1.48;;;1.38;;
48703;SDS011;34502;51.296;16.918;2022-09-29T09:46:42;1.98;;;1.00;;
48703;SDS011;34502;51.296;16.918;2022-09-29T09:49:16;2.55;;;1.30;;
48703;SDS011;34502;51.296;16.918;2022-09-29T09:52:01;1.65;;;1.23;;
48703;SDS011;34502;51.296;16.918;2022-09-29T09:54:51;1.20;;;1.10;;
48703;SDS011;34502;51.296;16.918;2022-09-29T10:00:16;1.30;;;1.20;;
48703;SDS011;34502;51.296;16.918;2022-09-29T10:02:49;0.93;;;0.90;;
48703;SDS011;34502;51.296;16.918;2022-09-29T10:05:17;0.98;;;0.88;;
48703;SDS011;34502;51.296;16.918;2022-09-29T10:07:45;1.83;;;1.33;;
48703;SDS011;34502;51.296;16.918;2022-09-29T10:10:20;2.55;;;1.40;;
48703;SDS011;34502;51.296;16.918;2022-09-29T10:13:06;1.65;;;1.55;;
48703;SDS011;34502;51.296;16.918;2022-09-29T10:15:35;4.30;;;1.73;;
48703;SDS011;34502;51.296;16.918;2022-09-29T10:18:22;1.80;;;1.40;;
48703;SDS011;34502;51.296;16.918;2022-09-29T10:21:18;2.50;;;1.60;;
48703;SDS011;34502;51.296;16.918;2022-09-29T10:23:53;2.92;;;1.40;;
48703;SDS011;34502;51.296;16.918;2022-09-29T10:26:24;1.35;;;1.25;;
48703;SDS011;34502;51.296;16.918;2022-09-29T10:29:18;4.10;;;1.25;;
48703;SDS011;34502;51.296;16.918;2022-09-29T10:32:06;1.67;;;1.30;;
48703;SDS011;34502;51.296;16.918;2022-09-29T10:34:40;1.70;;;1.20;;
48703;SDS011;34502;51.296;16.918;2022-09-29T10:37:51;3.20;;;1.30;;
48703;SDS011;34502;51.296;16.918;2022-09-29T10:40:08;2.30;;;1.63;;
48703;SDS011;34502;51.296;16.918;2022-09-29T10:42:42;3.30;;;2.25;;
48703;SDS011;34502;51.296;16.918;2022-09-29T10:47:39;5.65;;;2.00;;
48703;SDS011;34502;51.296;16.918;2022-09-29T10:50:18;3.03;;;1.88;;
48703;SDS011;34502;51.296;16.918;2022-09-29T10:52:53;12.15;;;2.50;;
48703;SDS011;34502;51.296;16.918;2022-09-29T10:55:21;11.13;;;3.22;;
48703;SDS011;34502;51.296;16.918;2022-09-29T10:57:48;3.53;;;2.20;;
48703;SDS011;34502;51.296;16.918;2022-09-29T11:00:34;2.17;;;1.70;;
48703;SDS011;34502;51.296;16.918;2022-09-29T11:03:04;3.53;;;1.88;;
48703;SDS011;34502;51.296;16.918;2022-09-29T11:05:53;3.10;;;1.70;;
48703;SDS011;34502;51.296;16.918;2022-09-29T11:08:24;1.92;;;1.60;;
48703;SDS011;34502;51.296;16.918;2022-09-29T11:11:02;2.10;;;1.50;;
48703;SDS011;34502;51.296;16.918;2022-09-29T11:13:40;2.05;;;1.80;;
48703;SDS011;34502;51.296;16.918;2022-09-29T11:16:12;2.25;;;1.83;;
48703;SDS011;34502;51.296;16.918;2022-09-29T11:26:23;1.65;;;1.55;;
48703;SDS011;34502;51.296;16.918;2022-09-29T11:31:44;3.53;;;1.98;;
48703;SDS011;34502;51.296;16.918;2022-09-29T11:34:41;2.20;;;1.70;;
48703;SDS011;34502;51.296;16.918;2022-09-29T11:38:21;2.10;;;1.50;;
48703;SDS011;34502;51.296;16.918;2022-09-29T11:40:28;1.73;;;1.63;;
48703;SDS011;34502;51.296;16.918;2022-09-29T11:43:51;2.00;;;1.60;;
48703;SDS011;34502;51.296;16.918;2022-09-29T11:54:32;4.50;;;1.77;;
48703;SDS011;34502;51.296;16.918;2022-09-29T11:57:41;2.95;;;1.40;;
48703;SDS011;34502;51.296;16.918;2022-09-29T12:00:29;2.70;;;1.90;;
48703;SDS011;34502;51.296;16.918;2022-09-29T12:03:15;1.58;;;1.45;;
48703;SDS011;34502;51.296;16.918;2022-09-29T12:05:52;1.92;;;1.23;;
48703;SDS011;34502;51.296;16.918;2022-09-29T12:11:29;1.77;;;1.33;;
48703;SDS011;34502;51.296;16.918;2022-09-29T12:15:04;1.40;;;1.30;;
48703;SDS011;34502;51.296;16.918;2022-09-29T12:17:26;3.35;;;1.45;;
48703;SDS011;34502;51.296;16.918;2022-09-29T12:20:00;6.07;;;1.35;;
48703;SDS011;34502;51.296;16.918;2022-09-29T12:22:31;1.42;;;1.33;;
48703;SDS011;34502;51.296;16.918;2022-09-29T12:24:58;1.65;;;1.55;;
48703;SDS011;34502;51.296;16.918;2022-09-29T12:27:27;3.47;;;1.75;;
48703;SDS011;34502;51.296;16.918;2022-09-29T12:30:01;4.75;;;1.40;;
48703;SDS011;34502;51.296;16.918;2022-09-29T12:32:44;1.50;;;1.40;;
48703;SDS011;34502;51.296;16.918;2022-09-29T12:38:07;1.50;;;1.40;;
48703;SDS011;34502;51.296;16.918;2022-09-29T12:40:45;1.38;;;1.10;;
48703;SDS011;34502;51.296;16.918;2022-09-29T12:43:22;2.55;;;1.17;;
48703;SDS011;34502;51.296;16.918;2022-09-29T12:46:14;1.05;;;1.05;;
48703;SDS011;34502;51.296;16.918;2022-09-29T12:49:03;0.93;;;0.90;;
48703;SDS011;34502;51.296;16.918;2022-09-29T12:51:43;2.22;;;2.13;;
48703;SDS011;34502;51.296;16.918;2022-09-29T12:54:13;2.08;;;1.38;;
48703;SDS011;34502;51.296;16.918;2022-09-29T12:56:45;1.48;;;1.25;;
48703;SDS011;34502;51.296;16.918;2022-09-29T12:59:26;3.13;;;1.15;;
48703;SDS011;34502;51.296;16.918;2022-09-29T13:02:33;1.23;;;1.13;;
48703;SDS011;34502;51.296;16.918;2022-09-29T13:08:04;1.23;;;1.13;;
48703;SDS011;34502;51.296;16.918;2022-09-29T13:10:58;1.17;;;1.08;;
48703;SDS011;34502;51.296;16.918;2022-09-29T13:16:39;2.30;;;1.25;;
48703;SDS011;34502;51.296;16.918;2022-09-29T13:27:31;2.95;;;1.30;;
48703;SDS011;34502;51.296;16.918;2022-09-29T13:30:05;1.83;;;0.90;;
48703;SDS011;34502;51.296;16.918;2022-09-29T13:32:42;1.33;;;1.23;;
48703;SDS011;34502;51.296;16.918;2022-09-29T13:35:27;1.90;;;1.20;;
48703;SDS011;34502;51.296;16.918;2022-09-29T13:37:55;4.18;;;1.30;;
48703;SDS011;34502;51.296;16.918;2022-09-29T13:40:29;1.20;;;0.77;;
48703;SDS011;34502;51.296;16.918;2022-09-29T13:42:56;1.10;;;1.00;;
48703;SDS011;34502;51.296;16.918;2022-09-29T13:47:53;1.38;;;1.10;;
48703;SDS011;34502;51.296;16.918;2022-09-29T13:55:51;1.20;;;1.10;;
48703;SDS011;34502;51.296;16.918;2022-09-29T13:58:25;4.38;;;1.42;;
48703;SDS011;34502;51.296;16.918;2022-09-29T14:01:00;1.10;;;1.00;;
48703;SDS011;34502;51.296;16.918;2022-09-29T14:03:35;1.00;;;0.90;;
48703;SDS011;34502;51.296;16.918;2022-09-29T14:06:16;1.63;;;1.13;;
48703;SDS011;34502;51.296;16.918;2022-09-29T14:08:59;1.35;;;0.95;;
48703;SDS011;34502;51.296;16.918;2022-09-29T14:14:17;1.38;;;1.10;;
48703;SDS011;34502;51.296;16.918;2022-09-29T14:16:54;1.27;;;1.17;;
48703;SDS011;34502;51.296;16.918;2022-09-29T14:25:20;2.03;;;1.10;;
48703;SDS011;34502;51.296;16.918;2022-09-29T14:27:57;1.27;;;1.17;;
48703;SDS011;34502;51.296;16.918;2022-09-29T14:33:07;2.80;;;1.40;;
48703;SDS011;34502;51.296;16.918;2022-09-29T14:38:34;1.20;;;1.10;;
48703;SDS011;34502;51.296;16.918;2022-09-29T14:43:40;1.27;;;1.13;;
48703;SDS011;34502;51.296;16.918;2022-09-29T15:03:24;1.50;;;1.40;;
48703;SDS011;34502;51.296;16.918;2022-09-29T15:08:42;3.55;;;1.70;;
48703;SDS011;34502;51.296;16.918;2022-09-29T15:11:40;5.90;;;1.98;;
48703;SDS011;34502;51.296;16.918;2022-09-29T15:14:32;1.70;;;1.60;;
48703;SDS011;34502;51.296;16.918;2022-09-29T15:17:02;2.97;;;2.25;;
48703;SDS011;34502;51.296;16.918;2022-09-29T15:22:34;6.28;;;3.45;;
48703;SDS011;34502;51.296;16.918;2022-09-29T15:25:15;9.90;;;5.88;;
48703;SDS011;34502;51.296;16.918;2022-09-29T15:27:55;10.43;;;5.55;;
48703;SDS011;34502;51.296;16.918;2022-09-29T15:30:27;10.00;;;5.47;;
48703;SDS011;34502;51.296;16.918;2022-09-29T15:33:00;6.95;;;4.85;;
48703;SDS011;34502;51.296;16.918;2022-09-29T15:35:33;8.05;;;5.05;;
48703;SDS011;34502;51.296;16.918;2022-09-29T15:40:55;6.60;;;4.75;;
48703;SDS011;34502;51.296;16.918;2022-09-29T15:43:24;4.47;;;3.60;;
48703;SDS011;34502;51.296;16.918;2022-09-29T15:45:54;3.92;;;3.22;;
48703;SDS011;34502;51.296;16.918;2022-09-29T15:48:26;3.05;;;2.35;;
48703;SDS011;34502;51.296;16.918;2022-09-29T15:50:53;3.72;;;2.20;;
48703;SDS011;34502;51.296;16.918;2022-09-29T15:53:20;2.60;;;1.85;;
48703;SDS011;34502;51.296;16.918;2022-09-29T15:55:49;2.25;;;2.03;;
48703;SDS011;34502;51.296;16.918;2022-09-29T16:00:55;2.92;;;2.47;;
48703;SDS011;34502;51.296;16.918;2022-09-29T16:06:27;10.68;;;5.75;;
48703;SDS011;34502;51.296;16.918;2022-09-29T16:08:56;10.55;;;6.53;;
48703;SDS011;34502;51.296;16.918;2022-09-29T16:11:34;17.67;;;12.73;;
48703;SDS011;34502;51.296;16.918;2022-09-29T16:14:01;20.60;;;14.13;;
48703;SDS011;34502;51.296;16.918;2022-09-29T16:16:33;24.85;;;17.05;;
48703;SDS011;34502;51.296;16.918;2022-09-29T16:19:14;28.55;;;19.30;;
48703;SDS011;34502;51.296;16.918;2022-09-29T16:21:55;33.08;;;21.00;;
48703;SDS011;34502;51.296;16.918;2022-09-29T16:24:26;38.65;;;23.00;;
48703;SDS011;34502;51.296;16.918;2022-09-29T16:26:54;36.97;;;21.00;;
48703;SDS011;34502;51.296;16.918;2022-09-29T16:29:42;32.95;;;21.60;;
48703;SDS011;34502;51.296;16.918;2022-09-29T16:34:56;56.13;;;42.25;;
48703;SDS011;34502;51.296;16.918;2022-09-29T16:38:46;40.78;;;32.58;;
48703;SDS011;34502;51.296;16.918;2022-09-29T16:41:23;46.45;;;33.88;;
48703;SDS011;34502;51.296;16.918;2022-09-29T16:49:12;58.63;;;40.58;;
48703;SDS011;34502;51.296;16.918;2022-09-29T16:51:43;57.58;;;39.38;;
48703;SDS011;34502;51.296;16.918;2022-09-29T16:54:16;55.05;;;37.70;;
48703;SDS011;34502;51.296;16.918;2022-09-29T16:59:44;49.40;;;31.58;;
48703;SDS011;34502;51.296;16.918;2022-09-29T17:02:10;45.70;;;26.90;;
48703;SDS011;34502;51.296;16.918;2022-09-29T17:04:37;36.60;;;22.88;;
48703;SDS011;34502;51.296;16.918;2022-09-29T17:07:03;39.03;;;26.20;;
48703;SDS011;34502;51.296;16.918;2022-09-29T17:09:29;46.85;;;27.00;;
48703;SDS011;34502;51.296;16.918;2022-09-29T17:11:55;44.45;;;28.02;;
48703;SDS011;34502;51.296;16.918;2022-09-29T17:14:23;48.55;;;31.88;;
48703;SDS011;34502;51.296;16.918;2022-09-29T17:16:49;49.88;;;31.92;;
48703;SDS011;34502;51.296;16.918;2022-09-29T17:19:16;42.13;;;28.70;;
48703;SDS011;34502;51.296;16.918;2022-09-29T17:21:42;44.88;;;27.40;;
48703;SDS011;34502;51.296;16.918;2022-09-29T17:24:08;41.95;;;25.85;;
48703;SDS011;34502;51.296;16.918;2022-09-29T17:26:44;41.10;;;26.10;;
48703;SDS011;34502;51.296;16.918;2022-09-29T17:29:29;198.50;;;75.45;;
48703;SDS011;34502;51.296;16.918;2022-09-29T17:31:56;142.45;;;56.95;;
48703;SDS011;34502;51.296;16.918;2022-09-29T17:34:22;119.18;;;50.88;;
48703;SDS011;34502;51.296;16.918;2022-09-29T17:36:54;111.55;;;49.80;;
48703;SDS011;34502;51.296;16.918;2022-09-29T17:39:25;109.70;;;51.90;;
48703;SDS011;34502;51.296;16.918;2022-09-29T17:41:51;103.50;;;48.53;;